createdAt,value
2022-10-07T00:09:54.321Z,24
2022-10-07T00:20:00.296Z,21
2022-10-07T00:30:06.330Z,17
2022-10-07T00:40:11.690Z,17
2022-10-07T00:50:15.825Z,19
2022-10-07T01:00:22.030Z,21
2022-10-07T01:10:27.586Z,18
2022-10-07T01:20:32.159Z,15
2022-10-07T01:30:36.295Z,18
2022-10-07T01:40:43.185Z,17
2022-10-07T01:50:49.081Z,23
2022-10-07T02:00:55.654Z,27
2022-10-07T02:11:00.585Z,23
2022-10-07T02:21:06.731Z,25
2022-10-07T02:31:10.848Z,24
2022-10-07T02:41:18.471Z,29
2022-10-07T02:51:24.404Z,24
2022-10-07T03:01:30.335Z,20
2022-10-07T03:11:38.288Z,20
2022-10-07T03:21:43.736Z,21
2022-10-07T03:31:51.866Z,19
2022-10-07T03:41:58.251Z,20
2022-10-07T03:52:02.813Z,19
2022-10-07T04:02:10.137Z,21
2022-10-07T04:12:14.459Z,18
2022-10-07T04:22:21.896Z,21
2022-10-07T04:32:27.412Z,16
2022-10-07T04:42:33.600Z,12
2022-10-07T04:52:39.241Z,14
2022-10-07T05:02:45.053Z,13
2022-10-07T05:12:53.865Z,13
2022-10-07T05:22:57.058Z,12
2022-10-07T05:33:03.763Z,11
2022-10-07T05:43:09.204Z,10
2022-10-07T05:53:14.791Z,11
2022-10-07T06:03:21.067Z,12
2022-10-07T06:13:27.698Z,19
2022-10-07T06:23:34.401Z,14
2022-10-07T06:33:40.240Z,8
2022-10-07T06:43:45.510Z,9
2022-10-07T06:53:50.674Z,8
2022-10-07T07:03:56.083Z,11
2022-10-07T07:14:02.407Z,8
2022-10-07T07:24:08.179Z,9
2022-10-07T07:34:15.071Z,9
2022-10-07T07:44:21.442Z,10
2022-10-07T07:54:26.205Z,9
2022-10-07T08:04:33.109Z,10
2022-10-07T08:14:39.873Z,11
2022-10-07T08:24:47.675Z,10
2022-10-07T08:34:55.213Z,11
2022-10-07T08:45:03.960Z,10
2022-10-07T08:55:06.602Z,10
2022-10-07T09:05:13.305Z,9
2022-10-07T09:15:17.332Z,11
2022-10-07T09:25:23.590Z,9
2022-10-07T09:35:29.746Z,8
2022-10-07T09:45:36.195Z,9
2022-10-07T09:55:41.543Z,15
2022-10-07T10:05:47.429Z,13
2022-10-07T10:15:53.682Z,7
2022-10-07T11:06:23.637Z,16
2022-10-07T11:16:28.410Z,12
2022-10-07T11:26:34.794Z,16
2022-10-07T11:36:37.537Z,12
2022-10-07T11:46:47.121Z,12
2022-10-07T11:56:51.167Z,13
2022-10-07T12:06:58.168Z,15
2022-10-07T12:17:04.824Z,9
2022-10-07T12:27:09.340Z,13
2022-10-07T12:37:16.276Z,14
2022-10-07T12:47:22.010Z,17
2022-10-07T12:57:28.057Z,16
2022-10-07T13:07:34.568Z,25
2022-10-07T15:28:54.494Z,36
2022-10-07T15:39:02.415Z,16
2022-10-07T15:49:08.271Z,15
2022-10-07T15:59:14.400Z,7
2022-10-07T17:20:04.040Z,27
2022-10-07T17:30:08.741Z,22
2022-10-07T17:40:14.968Z,24
2022-10-07T17:50:18.788Z,21
2022-10-07T18:00:25.490Z,22
2022-10-07T18:10:31.806Z,27
2022-10-07T18:20:42.053Z,25
2022-10-07T18:30:44.938Z,25
2022-10-07T18:40:49.967Z,28
2022-10-07T18:50:59.686Z,29
2022-10-07T19:01:02.469Z,27
2022-10-07T19:11:08.813Z,28
2022-10-07T19:21:14.454Z,30
2022-10-07T19:31:19.045Z,31
2022-10-07T19:41:24.400Z,27
2022-10-07T19:51:30.103Z,30
2022-10-07T20:01:36.861Z,28
2022-10-07T20:11:43.561Z,31
2022-10-07T20:21:48.275Z,31
2022-10-07T20:31:55.078Z,25
2022-10-07T20:41:59.632Z,35
2022-10-07T20:52:07.278Z,28
2022-10-07T21:02:12.989Z,26
2022-10-07T21:12:17.865Z,27
2022-10-07T21:22:22.979Z,19
2022-10-07T21:32:29.255Z,18
2022-10-07T21:42:36.238Z,17
2022-10-07T21:52:42.050Z,14
2022-10-07T22:02:48.380Z,13
2022-10-07T22:12:53.697Z,16
2022-10-07T22:23:01.365Z,16
2022-10-07T22:33:06.143Z,15
2022-10-07T22:43:10.549Z,14
2022-10-07T22:53:17.552Z,13
2022-10-07T23:03:24.689Z,13
2022-10-07T23:13:28.831Z,13
2022-10-07T23:23:34.499Z,12
2022-10-07T23:33:41.408Z,11
2022-10-07T23:43:47.272Z,14
2022-10-07T23:53:53.322Z,11
